Terminal Aerodrome Forecast
Issued by NWS North Platte, NE

Home | Current Version | Previous Version | Text Only | Print | Product List | Glossary On
Versions: 1 2 3 4 5 6 7 8 9 10 11 12 13 14 15
791
FTUS43 KLBF 292329
TAFLBF
TAF
KLBF 292329Z 3000/3024 VRB04KT P6SM FEW040 OVC100
     FM300900 VRB02KT 4SM BR BKN030
     FM301200 VRB04KT 1SM BR BKN015
     FM301500 18004KT 4SM BR SCT015 BKN035
     FM301800 12005KT P6SM OVC050=

USA.gov is the U.S. government's official web portal to all federal, state and local government web resources and services.